Belcher, Louisiana
Current Conditions -  °F | °C
As of 11:53 PM on Sunday 25 Jan 2015 (Local Time) from KDTN Reporting Station
Clear Clear  
Wind Chill: 44°   Ceiling: Unl
Heat Index: 49°   Visibility: 10mi
Dew Point: 31°   Wind: 12mph
Humidity: 50%   Direction: 310°NW
Pressure: 30.1"   Gusts: NA
Location:  32.75°N, 93.83°W
Report Text: KDTN 260553Z AUTO 31010KT 10SM CLR 09/M01 A3010 RMK AO2 SLP192 T00941006 10150 20078 401830039 51019 TSNO
Loading
Personal Weather Stations






























Interactive Weather Map New forecast layout! Learn more

10-Day Weather Forecast

Advertisements
Track Severe Weather on mobile